Time;durP1;ratioP1;P1;durP2;ratioP2;P2;SDS_P1;SDS_P2;PMS_P1;PMS_P2;Temp;Humidity;BMP_temperature;BMP_pressure;BME280_temperature;BME280_humidity;BME280_pressure;Samples;Min_cycle;Max_cycle;Signal;HPM_P1;HPM_P2
2023/05/05 00:00:00;;;;;;;8.23;4.05;;;11.50;99.90;;;;;;5036874;28;20221;-74
2023/05/05 00:02:27;;;;;;;11.85;4.50;;;11.50;99.90;;;;;;5039511;28;20724;-70
2023/05/05 00:04:56;;;;;;;6.68;4.53;;;11.50;99.90;;;;;;5029347;28;20208;-70
2023/05/05 00:07:22;;;;;;;12.10;4.75;;;11.50;99.90;;;;;;5029453;28;20289;-71
2023/05/05 00:09:49;;;;;;;7.28;4.53;;;11.50;99.90;;;;;;5033461;28;20590;-73
2023/05/05 00:12:16;;;;;;;9.75;4.47;;;11.40;99.90;;;;;;5027977;28;20230;-73
2023/05/05 00:14:43;;;;;;;10.18;4.50;;;11.40;99.90;;;;;;5025727;28;20219;-74
2023/05/05 00:17:10;;;;;;;10.15;4.95;;;11.40;99.90;;;;;;5032961;28;20648;-73
2023/05/05 00:19:37;;;;;;;8.18;4.15;;;11.40;99.90;;;;;;5029210;28;20277;-71
2023/05/05 00:22:05;;;;;;;8.18;4.15;;;11.30;99.90;;;;;;5036794;28;20561;-73
2023/05/05 00:24:32;;;;;;;9.98;5.45;;;11.40;99.90;;;;;;5037119;28;20204;-72
2023/05/05 00:27:01;;;;;;;9.70;4.55;;;11.40;99.90;;;;;;5038869;28;20288;-73
2023/05/05 00:29:27;;;;;;;10.15;4.53;;;11.40;99.90;;;;;;5028304;28;20240;-72
2023/05/05 00:31:55;;;;;;;5.93;3.85;;;11.40;99.90;;;;;;5034617;28;20307;-71
2023/05/05 00:34:22;;;;;;;6.68;4.20;;;11.40;99.90;;;;;;5039741;28;20293;-71
2023/05/05 00:36:49;;;;;;;6.57;3.70;;;11.40;99.90;;;;;;5036339;28;20629;-73
2023/05/05 00:39:17;;;;;;;6.22;4.40;;;11.30;99.90;;;;;;5038820;28;20259;-72
2023/05/05 00:41:44;;;;;;;9.50;4.60;;;11.40;99.90;;;;;;5035110;28;20281;-74
2023/05/05 00:44:11;;;;;;;7.53;4.30;;;11.40;99.90;;;;;;5033781;28;20222;-72
2023/05/05 00:46:41;;;;;;;9.48;4.55;;;11.40;99.90;;;;;;5037689;28;20208;-72
2023/05/05 00:49:08;;;;;;;9.43;5.20;;;11.40;99.90;;;;;;5033515;28;20221;-74
2023/05/05 00:51:35;;;;;;;8.35;3.97;;;11.30;99.90;;;;;;5032460;28;20294;-74
2023/05/05 00:54:02;;;;;;;8.38;3.40;;;11.30;99.90;;;;;;5033528;28;20198;-73
2023/05/05 00:56:31;;;;;;;7.85;4.80;;;11.30;99.90;;;;;;5034101;28;20288;-74
2023/05/05 00:58:58;;;;;;;7.70;4.10;;;11.30;99.90;;;;;;5033472;28;20253;-73
2023/05/05 01:01:26;;;;;;;8.65;4.03;;;11.30;99.90;;;;;;5031473;28;20244;-72
2023/05/05 01:03:53;;;;;;;6.07;3.83;;;11.20;99.90;;;;;;5033692;28;20555;-73
2023/05/05 01:06:31;;;;;;;6.20;3.90;;;11.20;99.90;;;;;;5030830;28;20211;-74
2023/05/05 01:09:09;;;;;;;5.20;4.10;;;11.20;99.90;;;;;;5033516;28;20260;-72
2023/05/05 01:11:46;;;;;;;7.38;4.63;;;11.20;99.90;;;;;;5048149;28;20247;-74
2023/05/05 01:14:16;;;;;;;6.80;4.47;;;11.10;99.90;;;;;;5033193;28;20268;-72
2023/05/05 01:16:52;;;;;;;11.60;5.38;;;11.10;99.90;;;;;;5035303;28;20204;-74
2023/05/05 01:19:49;;;;;;;8.40;4.35;;;11.10;99.90;;;;;;5035136;28;20304;-75
2023/05/05 01:22:20;;;;;;;11.05;4.20;;;11.00;99.90;;;;;;5027917;28;20218;-75
2023/05/05 01:25:12;;;;;;;6.65;4.40;;;11.00;99.90;;;;;;5033146;28;20282;-73
2023/05/05 01:27:55;;;;;;;5.07;3.90;;;11.00;99.90;;;;;;5047345;28;20197;-73
2023/05/05 01:30:55;;;;;;;10.00;4.57;;;11.00;99.90;;;;;;5031165;28;20232;-73
2023/05/05 01:33:28;;;;;;;5.75;4.15;;;11.00;99.90;;;;;;5034076;28;20239;-75
2023/05/05 01:36:01;;;;;;;6.93;4.45;;;11.00;99.90;;;;;;5028669;28;20702;-71
2023/05/05 01:38:36;;;;;;;6.10;4.15;;;10.90;99.90;;;;;;5032616;28;20192;-74
2023/05/05 01:41:11;;;;;;;7.50;3.78;;;10.90;99.90;;;;;;5030951;28;20197;-74
2023/05/05 01:43:38;;;;;;;8.95;5.05;;;10.90;99.90;;;;;;5032553;28;20259;-73
2023/05/05 01:46:07;;;;;;;8.50;3.90;;;10.90;99.90;;;;;;5032839;28;20215;-76
2023/05/05 01:48:37;;;;;;;7.97;3.42;;;10.90;99.90;;;;;;5033398;28;20205;-74
2023/05/05 01:51:06;;;;;;;11.20;4.00;;;11.00;99.90;;;;;;5041774;28;20221;-74
2023/05/05 01:53:33;;;;;;;8.30;4.38;;;11.00;99.90;;;;;;5036525;28;20651;-73
2023/05/05 01:56:02;;;;;;;7.38;4.88;;;11.00;99.90;;;;;;5031393;28;20222;-74
2023/05/05 01:58:31;;;;;;;8.57;4.00;;;11.10;99.90;;;;;;5032894;28;20215;-72
2023/05/05 02:01:00;;;;;;;6.43;4.05;;;11.00;99.90;;;;;;5032094;28;20270;-74
2023/05/05 02:03:29;;;;;;;8.60;4.10;;;11.00;99.90;;;;;;5032914;28;20222;-76
2023/05/05 02:06:00;;;;;;;7.72;4.18;;;11.00;99.90;;;;;;5032080;28;20200;-74
2023/05/05 02:08:28;;;;;;;9.38;3.85;;;11.00;99.90;;;;;;5032630;28;20202;-74
2023/05/05 02:10:56;;;;;;;9.40;4.88;;;11.00;99.90;;;;;;5032018;28;20209;-74
2023/05/05 02:13:24;;;;;;;7.57;4.68;;;10.90;99.90;;;;;;5032911;28;20205;-72
2023/05/05 02:15:53;;;;;;;6.10;4.60;;;10.90;99.90;;;;;;5042817;28;20234;-72
2023/05/05 02:18:22;;;;;;;13.60;5.00;;;10.90;99.90;;;;;;5034037;28;20202;-74
2023/05/05 02:20:50;;;;;;;4.47;3.78;;;10.80;99.90;;;;;;5034755;28;20294;-74
2023/05/05 02:23:19;;;;;;;9.63;6.45;;;10.80;99.90;;;;;;5044671;28;20220;-72
2023/05/05 02:25:50;;;;;;;6.65;3.92;;;10.80;99.90;;;;;;5042156;28;20288;-72
2023/05/05 02:28:22;;;;;;;6.90;3.08;;;10.70;99.90;;;;;;5043170;28;20204;-72
2023/05/05 02:30:55;;;;;;;8.82;4.13;;;10.70;99.90;;;;;;5046852;28;20659;-72
2023/05/05 02:33:25;;;;;;;6.70;4.15;;;10.70;99.90;;;;;;5041537;28;20624;-74
2023/05/05 02:35:54;;;;;;;9.02;3.90;;;10.70;99.90;;;;;;5036246;28;20217;-72
2023/05/05 02:38:28;;;;;;;8.95;4.13;;;10.60;99.90;;;;;;5032984;28;20193;-72
2023/05/05 02:40:57;;;;;;;12.05;4.63;;;10.70;99.90;;;;;;5033468;28;20629;-76
2023/05/05 02:43:26;;;;;;;9.60;4.60;;;10.60;99.90;;;;;;5036622;28;20281;-73
2023/05/05 02:45:53;;;;;;;9.50;4.10;;;10.60;99.90;;;;;;5034849;28;20199;-73
2023/05/05 02:48:23;;;;;;;5.70;4.07;;;10.60;99.90;;;;;;5032325;28;20202;-75
2023/05/05 02:50:50;;;;;;;7.93;4.53;;;10.60;99.90;;;;;;5031909;28;20249;-73
2023/05/05 02:53:22;;;;;;;12.15;4.57;;;10.50;99.90;;;;;;5031907;28;20229;-74
2023/05/05 02:55:54;;;;;;;8.63;4.10;;;10.50;99.90;;;;;;5032510;28;20232;-73
2023/05/05 02:58:28;;;;;;;9.63;4.88;;;10.50;99.90;;;;;;5032134;28;20213;-72
2023/05/05 03:01:06;;;;;;;11.27;4.70;;;10.40;99.90;;;;;;5046464;28;20204;-73
2023/05/05 03:03:40;;;;;;;7.65;4.35;;;10.40;99.90;;;;;;5037470;28;20208;-74
2023/05/05 03:06:26;;;;;;;8.85;5.20;;;10.40;99.90;;;;;;5039768;28;20210;-73
2023/05/05 03:08:58;;;;;;;8.10;4.38;;;10.40;99.90;;;;;;5040097;28;20306;-75
2023/05/05 03:11:33;;;;;;;8.07;4.25;;;10.30;99.90;;;;;;5035758;28;20248;-74
2023/05/05 03:14:05;;;;;;;7.97;4.85;;;10.30;99.90;;;;;;5035417;28;20200;-73
2023/05/05 03:16:34;;;;;;;12.88;4.20;;;10.30;99.90;;;;;;5036968;28;20204;-73
2023/05/05 03:19:02;;;;;;;10.57;3.92;;;10.30;99.90;;;;;;5034229;28;20227;-74
2023/05/05 03:21:31;;;;;;;10.35;4.57;;;10.30;99.90;;;;;;5035657;28;20287;-71
2023/05/05 03:23:58;;;;;;;7.22;4.85;;;10.20;99.90;;;;;;5035395;28;20208;-74
2023/05/05 03:26:27;;;;;;;7.68;4.15;;;10.20;99.90;;;;;;5030982;28;20291;-74
2023/05/05 03:28:54;;;;;;;10.13;5.10;;;10.20;99.90;;;;;;5035780;28;20263;-74
2023/05/05 03:31:21;;;;;;;7.43;4.10;;;10.20;99.90;;;;;;5035025;28;20284;-76
2023/05/05 03:33:48;;;;;;;10.88;4.53;;;10.20;99.90;;;;;;5049007;28;20199;-73
2023/05/05 03:36:15;;;;;;;8.35;5.15;;;10.10;99.90;;;;;;5035020;28;20212;-75
2023/05/05 03:38:42;;;;;;;5.80;4.13;;;10.10;99.90;;;;;;5035386;28;20231;-74
2023/05/05 03:41:11;;;;;;;8.00;4.80;;;10.10;99.90;;;;;;5033726;28;20659;-72
2023/05/05 03:43:40;;;;;;;7.70;4.70;;;10.10;99.90;;;;;;5034882;28;20280;-75
2023/05/05 03:46:07;;;;;;;8.18;4.40;;;10.00;99.90;;;;;;5041872;28;20228;-73
2023/05/05 03:48:34;;;;;;;12.73;5.57;;;10.00;99.90;;;;;;5033563;28;20200;-73
2023/05/05 03:51:02;;;;;;;9.52;4.70;;;10.00;99.90;;;;;;5034661;28;20266;-73
2023/05/05 03:53:29;;;;;;;7.75;4.38;;;10.00;99.90;;;;;;5035353;28;20295;-76
2023/05/05 03:55:56;;;;;;;9.85;5.07;;;10.00;99.90;;;;;;5042592;28;20231;-73
2023/05/05 03:58:23;;;;;;;11.45;4.35;;;10.00;99.90;;;;;;5042657;28;20204;-72
2023/05/05 04:00:52;;;;;;;7.15;4.93;;;9.90;99.90;;;;;;5034122;28;20208;-71
2023/05/05 04:03:19;;;;;;;15.15;5.85;;;10.00;99.90;;;;;;5033743;28;20661;-75
2023/05/05 04:05:46;;;;;;;10.05;4.85;;;10.00;99.90;;;;;;5036441;28;20684;-73
2023/05/05 04:08:13;;;;;;;11.38;4.95;;;9.90;99.90;;;;;;5033435;28;20207;-76
2023/05/05 04:10:40;;;;;;;12.90;5.50;;;10.00;99.90;;;;;;5032338;28;20303;-73
2023/05/05 04:13:08;;;;;;;7.20;5.25;;;10.00;99.90;;;;;;5035016;28;20308;-74
2023/05/05 04:15:35;;;;;;;5.55;4.25;;;10.00;99.90;;;;;;5034368;28;20204;-72
2023/05/05 04:18:03;;;;;;;10.35;4.72;;;10.10;99.90;;;;;;5040313;28;20622;-71
2023/05/05 04:20:31;;;;;;;7.35;4.93;;;10.10;99.90;;;;;;5036449;28;20339;-72
2023/05/05 04:22:58;;;;;;;9.30;5.32;;;10.10;99.90;;;;;;5032897;28;20288;-70
2023/05/05 04:25:24;;;;;;;9.93;6.60;;;10.10;99.90;;;;;;5034514;28;20208;-72
2023/05/05 04:27:51;;;;;;;7.90;4.07;;;10.10;99.90;;;;;;5033330;28;20734;-73
2023/05/05 04:30:18;;;;;;;9.30;6.10;;;10.20;99.90;;;;;;5032951;28;20766;-71
2023/05/05 04:32:45;;;;;;;7.15;4.70;;;10.20;99.90;;;;;;5034082;28;20205;-74
2023/05/05 04:35:13;;;;;;;10.50;5.57;;;10.20;99.90;;;;;;5034009;28;20206;-72
2023/05/05 04:37:40;;;;;;;9.98;4.70;;;10.30;99.90;;;;;;5034498;28;20205;-73
2023/05/05 04:40:09;;;;;;;13.80;5.95;;;10.40;99.90;;;;;;5033383;28;20595;-74
2023/05/05 04:42:36;;;;;;;11.00;5.05;;;10.50;99.90;;;;;;5027411;28;20201;-72
2023/05/05 04:45:03;;;;;;;7.45;4.78;;;10.60;99.90;;;;;;5033535;28;20196;-74
2023/05/05 04:47:30;;;;;;;7.63;4.97;;;10.60;99.90;;;;;;5037762;28;20295;-70
2023/05/05 04:49:57;;;;;;;6.18;4.13;;;10.70;99.90;;;;;;5032318;28;20234;-71
2023/05/05 04:52:25;;;;;;;8.32;5.00;;;10.80;99.90;;;;;;5033607;28;20308;-74
2023/05/05 04:54:52;;;;;;;7.60;5.05;;;10.90;99.90;;;;;;5040561;28;20284;-70
2023/05/05 04:57:19;;;;;;;5.63;4.05;;;11.00;99.90;;;;;;5040884;28;20580;-72
2023/05/05 04:59:46;;;;;;;15.35;6.60;;;11.10;99.90;;;;;;5032177;28;20313;-71
2023/05/05 05:02:13;;;;;;;6.60;4.78;;;11.10;99.90;;;;;;5033100;28;20201;-71
2023/05/05 05:04:40;;;;;;;8.32;4.20;;;11.00;99.90;;;;;;5035769;28;20200;-73
2023/05/05 05:07:07;;;;;;;9.18;5.53;;;11.00;99.90;;;;;;5033283;28;20199;-74
2023/05/05 05:09:35;;;;;;;5.07;3.95;;;11.10;99.90;;;;;;5032229;28;20273;-73
2023/05/05 05:12:02;;;;;;;10.38;5.25;;;11.10;99.90;;;;;;5033660;28;20267;-70
2023/05/05 05:14:29;;;;;;;5.85;4.20;;;11.20;99.90;;;;;;5033689;28;20226;-73
2023/05/05 05:16:56;;;;;;;9.40;5.30;;;11.30;99.90;;;;;;5026813;28;20208;-71
2023/05/05 05:19:23;;;;;;;9.38;4.50;;;11.80;99.90;;;;;;5033584;28;20222;-70
2023/05/05 05:21:50;;;;;;;9.40;4.20;;;12.50;99.90;;;;;;5031433;28;20195;-70
2023/05/05 05:24:17;;;;;;;9.40;4.53;;;12.60;99.90;;;;;;5033166;28;20207;-73
2023/05/05 05:26:45;;;;;;;11.80;5.38;;;12.40;99.90;;;;;;5036288;28;20290;-71
2023/05/05 05:29:12;;;;;;;10.40;5.40;;;12.40;99.90;;;;;;5032558;28;20225;-73
2023/05/05 05:31:39;;;;;;;7.45;5.05;;;12.20;99.90;;;;;;5031035;28;20286;-74
2023/05/05 05:34:06;;;;;;;11.48;4.95;;;12.00;99.90;;;;;;5024458;28;20226;-72
2023/05/05 05:36:33;;;;;;;8.48;4.93;;;11.90;99.90;;;;;;5036403;28;20206;-75
2023/05/05 05:39:00;;;;;;;13.02;5.70;;;11.80;99.90;;;;;;5033129;28;20253;-75
2023/05/05 05:41:27;;;;;;;6.35;4.20;;;11.80;99.90;;;;;;5031948;28;20206;-75
2023/05/05 05:43:55;;;;;;;8.13;4.43;;;11.80;99.90;;;;;;5033336;28;20264;-72
2023/05/05 05:46:22;;;;;;;8.43;3.78;;;11.80;99.90;;;;;;5037894;28;20198;-76
2023/05/05 05:48:49;;;;;;;9.13;4.80;;;12.10;99.90;;;;;;5032488;28;20250;-75
2023/05/05 05:51:16;;;;;;;10.27;5.38;;;13.20;99.80;;;;;;5034026;28;20287;-73
2023/05/05 05:53:43;;;;;;;5.90;3.50;;;14.60;97.10;;;;;;5032370;28;20671;-76
2023/05/05 05:56:10;;;;;;;4.97;4.47;;;15.70;94.80;;;;;;5032426;28;20203;-74
2023/05/05 05:58:37;;;;;;;9.87;5.73;;;16.70;92.40;;;;;;5032786;28;20457;-73
2023/05/05 06:01:06;;;;;;;10.67;4.90;;;17.50;90.80;;;;;;5030871;28;20443;-74
2023/05/05 06:03:33;;;;;;;9.60;4.23;;;17.60;89.90;;;;;;5032204;28;20451;-74
2023/05/05 06:06:00;;;;;;;5.57;4.53;;;17.20;90.00;;;;;;5023928;28;20485;-73
2023/05/05 06:08:27;;;;;;;9.68;4.13;;;16.50;90.40;;;;;;5030507;28;20948;-74
2023/05/05 06:10:53;;;;;;;13.45;5.00;;;16.00;91.20;;;;;;5025752;28;20205;-74
2023/05/05 06:13:21;;;;;;;9.00;4.63;;;15.50;91.80;;;;;;5025474;28;20232;-73
2023/05/05 06:15:47;;;;;;;11.25;4.40;;;14.90;92.60;;;;;;5029883;28;20205;-74
2023/05/05 06:18:16;;;;;;;7.00;4.50;;;14.60;93.20;;;;;;5033191;28;20204;-73
2023/05/05 06:20:43;;;;;;;9.45;5.13;;;14.30;93.60;;;;;;5036756;28;20310;-75
2023/05/05 06:23:10;;;;;;;8.88;4.50;;;14.10;94.00;;;;;;5034706;28;20235;-73
2023/05/05 06:25:37;;;;;;;16.30;5.47;;;13.90;94.30;;;;;;5031783;28;20647;-71
2023/05/05 06:28:06;;;;;;;4.85;3.92;;;13.70;94.80;;;;;;5031415;28;20208;-73
2023/05/05 06:30:34;;;;;;;10.88;4.45;;;13.60;95.00;;;;;;5030297;28;20227;-73
2023/05/05 06:33:01;;;;;;;8.07;5.38;;;13.60;95.30;;;;;;5032325;28;20216;-71
2023/05/05 06:35:30;;;;;;;10.40;5.57;;;13.50;95.40;;;;;;5032627;28;20647;-73
2023/05/05 06:37:57;;;;;;;7.13;4.07;;;13.40;95.50;;;;;;5031770;28;20204;-72
2023/05/05 06:40:24;;;;;;;14.68;4.63;;;13.50;95.60;;;;;;5042164;28;20224;-72
2023/05/05 06:42:51;;;;;;;10.00;5.28;;;13.40;95.50;;;;;;5041435;28;20654;-72
2023/05/05 06:45:18;;;;;;;6.15;4.15;;;13.50;95.60;;;;;;5035569;28;20345;-73
2023/05/05 06:47:46;;;;;;;8.50;4.72;;;13.40;95.60;;;;;;5041643;28;20210;-73
2023/05/05 06:50:13;;;;;;;9.73;5.45;;;13.30;95.70;;;;;;5038697;28;20441;-72
2023/05/05 06:52:41;;;;;;;7.03;5.15;;;13.40;95.80;;;;;;5040356;28;20875;-72
2023/05/05 06:55:09;;;;;;;8.88;5.20;;;13.60;96.10;;;;;;5037137;28;20646;-73
2023/05/05 06:57:35;;;;;;;11.07;4.75;;;13.60;95.50;;;;;;5024955;28;20204;-72
2023/05/05 07:00:04;;;;;;;8.38;4.95;;;13.60;95.40;;;;;;5030740;28;20224;-72
2023/05/05 07:02:32;;;;;;;10.73;5.70;;;13.80;95.40;;;;;;5035190;28;20207;-73
2023/05/05 07:04:59;;;;;;;9.35;4.45;;;13.90;95.40;;;;;;5028376;28;20204;-74
2023/05/05 07:07:26;;;;;;;7.50;4.40;;;14.00;95.40;;;;;;5032100;28;20204;-74
2023/05/05 07:09:54;;;;;;;8.35;4.38;;;13.80;95.70;;;;;;5030242;28;20691;-73
2023/05/05 07:12:21;;;;;;;8.43;4.68;;;13.80;95.40;;;;;;5036463;28;20231;-71
2023/05/05 07:14:48;;;;;;;8.50;5.32;;;13.70;95.40;;;;;;5035510;28;20232;-73
2023/05/05 07:17:15;;;;;;;9.20;4.63;;;13.80;95.50;;;;;;5039615;28;20235;-71
2023/05/05 07:19:42;;;;;;;8.80;5.43;;;13.90;95.30;;;;;;5035322;28;20626;-73
2023/05/05 07:22:09;;;;;;;8.35;4.70;;;13.90;95.10;;;;;;5037272;28;20258;-73
2023/05/05 07:24:36;;;;;;;7.05;4.95;;;14.00;95.20;;;;;;5034674;28;20299;-73
2023/05/05 07:27:06;;;;;;;8.02;4.70;;;14.00;95.00;;;;;;5037774;28;20235;-71
2023/05/05 07:29:33;;;;;;;8.68;6.20;;;13.90;95.10;;;;;;5036612;28;20308;-71
2023/05/05 07:32:01;;;;;;;9.10;5.65;;;13.80;95.30;;;;;;5034940;28;20208;-72
2023/05/05 07:34:27;;;;;;;9.25;4.70;;;13.70;95.60;;;;;;5033931;28;20216;-72
2023/05/05 07:36:55;;;;;;;11.40;5.45;;;13.70;95.90;;;;;;5037088;28;20212;-71
2023/05/05 07:39:22;;;;;;;10.00;4.68;;;13.70;96.70;;;;;;5035414;28;20224;-74
2023/05/05 07:41:49;;;;;;;14.98;6.40;;;13.80;96.90;;;;;;5037545;28;20307;-72
2023/05/05 07:44:17;;;;;;;15.38;5.45;;;13.70;97.50;;;;;;5042344;28;20204;-71
2023/05/05 07:46:44;;;;;;;7.20;4.35;;;13.60;98.20;;;;;;5034530;28;20286;-73
2023/05/05 07:49:10;;;;;;;4.68;4.28;;;13.40;99.10;;;;;;5034175;28;20236;-71
2023/05/05 07:51:37;;;;;;;10.73;6.05;;;13.30;99.20;;;;;;5032900;28;20613;-71
2023/05/05 07:54:04;;;;;;;6.90;5.05;;;13.20;99.70;;;;;;5039286;28;20230;-71
2023/05/05 07:56:31;;;;;;;9.68;5.30;;;13.10;99.90;;;;;;5043284;28;20200;-71
2023/05/05 07:58:58;;;;;;;9.82;5.53;;;13.00;99.90;;;;;;5034185;28;20230;-71
2023/05/05 08:01:26;;;;;;;9.55;6.20;;;12.70;99.90;;;;;;5045031;28;20207;-71
2023/05/05 08:03:53;;;;;;;14.27;6.80;;;12.70;99.90;;;;;;5035097;28;20209;-71
2023/05/05 08:06:22;;;;;;;12.98;7.18;;;12.70;99.90;;;;;;5037961;28;20293;-71
2023/05/05 08:08:49;;;;;;;9.13;5.80;;;12.60;99.90;;;;;;5033940;28;20282;-70
2023/05/05 08:11:16;;;;;;;13.80;6.55;;;12.60;99.90;;;;;;5033424;28;20212;-70
2023/05/05 08:13:43;;;;;;;13.30;7.40;;;12.60;99.90;;;;;;5033235;28;20653;-72
2023/05/05 08:16:10;;;;;;;15.88;6.72;;;12.60;99.90;;;;;;5033986;28;20200;-72
2023/05/05 08:18:39;;;;;;;12.20;6.38;;;12.70;99.90;;;;;;5033310;28;20203;-74
2023/05/05 08:21:07;;;;;;;17.10;7.07;;;12.90;99.90;;;;;;5028017;28;20234;-72
2023/05/05 08:23:35;;;;;;;11.07;6.30;;;13.20;99.90;;;;;;5036098;28;20307;-72
2023/05/05 08:26:03;;;;;;;10.18;5.55;;;13.70;99.90;;;;;;5035484;28;20699;-71
2023/05/05 08:28:30;;;;;;;13.13;6.10;;;14.90;99.90;;;;;;5045002;28;20206;-72
2023/05/05 08:30:58;;;;;;;7.53;5.40;;;16.00;99.90;;;;;;5038999;28;20199;-72
2023/05/05 08:33:24;;;;;;;9.90;4.77;;;16.70;99.90;;;;;;5032811;28;20570;-73
2023/05/05 08:35:55;;;;;;;12.60;4.87;;;18.10;98.60;;;;;;5033635;28;20455;-71
2023/05/05 08:38:22;;;;;;;8.70;4.43;;;18.90;94.30;;;;;;5039473;28;20932;-72
2023/05/05 08:40:51;;;;;;;8.37;4.90;;;19.00;93.50;;;;;;5035033;28;20451;-73
2023/05/05 08:43:21;;;;;;;8.67;4.70;;;18.60;93.90;;;;;;5033021;28;20446;-72
2023/05/05 08:45:50;;;;;;;6.60;4.13;;;19.10;93.80;;;;;;5034082;28;20562;-74
2023/05/05 08:48:19;;;;;;;9.43;5.67;;;19.20;93.10;;;;;;5033673;28;20901;-75
2023/05/05 08:50:49;;;;;;;7.00;5.53;;;18.70;92.70;;;;;;5038615;28;20473;-72
2023/05/05 08:53:29;;;;;;;8.17;5.30;;;18.10;93.20;;;;;;5032532;28;20580;-73
2023/05/05 08:55:59;;;;;;;15.03;5.97;;;17.70;94.20;;;;;;5032170;28;20450;-74
2023/05/05 08:58:26;;;;;;;9.27;5.60;;;17.40;94.30;;;;;;5030914;28;20452;-72
2023/05/05 09:00:54;;;;;;;7.63;5.40;;;17.00;94.60;;;;;;5037647;28;20526;-74
2023/05/05 09:03:22;;;;;;;11.27;5.53;;;16.80;95.40;;;;;;5031241;28;20443;-73
2023/05/05 09:05:50;;;;;;;6.20;5.60;;;16.40;95.40;;;;;;5030821;28;20445;-72
2023/05/05 09:08:19;;;;;;;8.10;6.18;;;16.20;96.00;;;;;;5032532;28;20449;-73
2023/05/05 09:10:47;;;;;;;8.95;5.05;;;15.90;96.90;;;;;;5020899;28;20217;-73
2023/05/05 09:13:15;;;;;;;8.52;6.32;;;15.80;97.10;;;;;;5028522;28;20206;-74
2023/05/05 09:15:42;;;;;;;7.03;5.68;;;15.60;97.40;;;;;;5031021;28;20205;-73
2023/05/05 09:18:10;;;;;;;21.98;9.95;;;15.40;98.20;;;;;;5025513;28;20205;-73
2023/05/05 09:20:39;;;;;;;8.88;7.55;;;15.30;98.90;;;;;;5035324;28;20309;-72
2023/05/05 09:23:10;;;;;;;8.00;6.80;;;15.20;99.40;;;;;;5032715;28;20299;-72
2023/05/05 09:25:39;;;;;;;11.75;7.22;;;15.20;99.90;;;;;;5032578;28;20643;-73
2023/05/05 09:28:11;;;;;;;7.63;6.82;;;15.20;99.90;;;;;;5033383;28;20221;-71
2023/05/05 09:30:39;;;;;;;9.15;6.90;;;15.30;99.90;;;;;;5032651;28;20225;-73
2023/05/05 09:33:06;;;;;;;19.38;7.28;;;15.30;99.90;;;;;;5033055;28;20574;-73
2023/05/05 09:35:50;;;;;;;9.68;6.47;;;15.40;99.90;;;;;;5033238;28;20232;-72
2023/05/05 09:38:18;;;;;;;12.00;6.20;;;15.40;99.90;;;;;;5026460;28;20685;-72
2023/05/05 09:40:47;;;;;;;11.18;7.00;;;15.50;99.90;;;;;;5031939;28;20221;-72
2023/05/05 09:43:15;;;;;;;13.38;8.10;;;15.60;99.90;;;;;;5032280;28;20224;-73
2023/05/05 09:45:42;;;;;;;15.07;7.25;;;15.70;99.90;;;;;;5032695;28;20718;-72
2023/05/05 09:48:22;;;;;;;8.35;6.43;;;15.90;99.90;;;;;;5033040;28;20290;-73
2023/05/05 09:50:49;;;;;;;10.93;7.33;;;16.30;99.90;;;;;;5039654;28;20604;-70
2023/05/05 09:53:16;;;;;;;8.50;6.00;;;16.60;99.90;;;;;;5032043;28;20802;-75
2023/05/05 09:55:54;;;;;;;8.23;7.13;;;16.90;99.90;;;;;;5032518;28;20470;-71
2023/05/05 09:58:23;;;;;;;9.70;6.70;;;17.10;99.80;;;;;;5033704;28;20454;-73
2023/05/05 10:00:51;;;;;;;13.00;7.80;;;17.10;99.20;;;;;;5031737;28;20451;-73
2023/05/05 10:03:19;;;;;;;18.07;7.20;;;17.10;98.60;;;;;;5033802;28;20478;-74
2023/05/05 10:05:49;;;;;;;10.70;8.30;;;17.10;98.70;;;;;;5035811;28;20455;-72
2023/05/05 10:08:16;;;;;;;12.23;6.50;;;17.30;98.60;;;;;;5033378;28;20447;-73
2023/05/05 10:10:51;;;;;;;9.03;6.00;;;17.80;97.50;;;;;;5036307;28;20486;-72
2023/05/05 10:13:21;;;;;;;9.30;6.20;;;18.30;96.00;;;;;;5039480;28;20445;-74
2023/05/05 10:15:50;;;;;;;9.87;5.70;;;18.60;95.40;;;;;;5036160;28;20561;-72
2023/05/05 10:18:21;;;;;;;8.00;6.13;;;18.80;95.20;;;;;;5036595;28;20504;-74
2023/05/05 10:20:55;;;;;;;6.43;5.23;;;19.10;94.00;;;;;;5035878;28;20442;-73
2023/05/05 10:23:23;;;;;;;11.07;6.43;;;19.40;92.00;;;;;;5035826;28;20457;-74
2023/05/05 10:25:54;;;;;;;6.57;5.10;;;19.10;92.20;;;;;;5036250;28;20521;-73
2023/05/05 10:28:31;;;;;;;8.40;5.10;;;19.10;91.90;;;;;;5039042;28;20442;-74
2023/05/05 10:31:00;;;;;;;6.30;5.30;;;19.30;91.40;;;;;;5036417;28;20438;-73
2023/05/05 10:33:34;;;;;;;8.17;4.83;;;19.10;90.30;;;;;;5036294;28;20515;-75
2023/05/05 10:36:04;;;;;;;7.30;5.43;;;18.80;90.40;;;;;;5034070;28;20502;-73
2023/05/05 10:38:32;;;;;;;8.03;5.20;;;18.70;90.90;;;;;;5030814;28;20478;-74
2023/05/05 10:41:00;;;;;;;12.23;6.13;;;18.60;90.50;;;;;;5036830;28;20436;-74
2023/05/05 10:43:29;;;;;;;11.70;5.50;;;18.60;90.90;;;;;;5034610;28;20439;-75
2023/05/05 10:45:57;;;;;;;8.90;6.73;;;18.60;91.00;;;;;;5034778;28;20443;-75
2023/05/05 10:48:31;;;;;;;6.67;5.33;;;18.60;91.00;;;;;;5034946;28;20937;-73
2023/05/05 10:51:09;;;;;;;6.93;5.03;;;18.50;91.10;;;;;;5037659;28;20440;-74
2023/05/05 10:53:42;;;;;;;8.97;6.63;;;18.70;90.80;;;;;;5039139;28;20445;-73
2023/05/05 10:56:17;;;;;;;8.23;5.00;;;18.90;90.60;;;;;;5036618;28;20444;-74
2023/05/05 10:58:45;;;;;;;6.60;4.63;;;19.10;90.40;;;;;;5038546;28;20876;-76
2023/05/05 11:01:27;;;;;;;8.30;4.73;;;19.10;90.20;;;;;;5038183;28;20820;-74
2023/05/05 11:04:19;;;;;;;9.63;4.77;;;19.40;90.00;;;;;;5035026;28;20452;-74
2023/05/05 11:07:24;;;;;;;10.07;5.03;;;19.80;90.00;;;;;;5034729;28;20476;-75
2023/05/05 11:10:00;;;;;;;9.37;5.60;;;20.20;89.10;;;;;;5034217;28;20873;-74
2023/05/05 11:12:27;;;;;;;6.33;5.47;;;20.40;88.10;;;;;;5036098;28;20452;-75
2023/05/05 11:15:32;;;;;;;9.07;5.90;;;20.40;87.00;;;;;;5036324;28;20557;-75
2023/05/05 11:18:01;;;;;;;9.73;6.07;;;20.30;87.00;;;;;;5028465;28;20783;-75
2023/05/05 11:21:01;;;;;;;8.30;5.63;;;20.30;88.30;;;;;;5031827;28;20529;-74
2023/05/05 11:23:28;;;;;;;6.70;5.37;;;20.40;87.90;;;;;;5028292;28;20496;-76
2023/05/05 11:25:56;;;;;;;10.80;7.30;;;20.40;87.50;;;;;;5040900;28;20429;-74
2023/05/05 11:28:27;;;;;;;11.47;6.97;;;20.30;88.40;;;;;;5042362;28;20444;-74
2023/05/05 11:31:18;;;;;;;8.53;6.70;;;20.30;88.90;;;;;;5035609;28;20935;-74
2023/05/05 11:33:48;;;;;;;11.60;6.23;;;20.30;88.30;;;;;;5034925;28;20457;-76
2023/05/05 11:36:16;;;;;;;9.30;5.90;;;20.40;89.10;;;;;;5035057;28;20443;-73
2023/05/05 11:39:07;;;;;;;13.27;6.57;;;20.70;88.50;;;;;;5035015;28;20500;-75
2023/05/05 11:42:00;;;;;;;11.63;6.60;;;21.20;87.90;;;;;;5036750;28;20450;-73
2023/05/05 11:44:31;;;;;;;7.30;6.30;;;21.10;87.90;;;;;;5024349;28;20941;-73
2023/05/05 11:47:32;;;;;;;12.13;6.57;;;21.10;89.10;;;;;;5034569;28;20454;-75
2023/05/05 11:50:20;;;;;;;9.10;7.07;;;21.20;87.50;;;;;;5034800;28;20474;-74
2023/05/05 11:52:48;;;;;;;8.93;7.97;;;21.20;88.80;;;;;;5034025;28;20926;-75
2023/05/05 11:55:20;;;;;;;9.50;6.70;;;21.20;87.60;;;;;;5040138;28;20500;-74
2023/05/05 11:57:48;;;;;;;9.10;6.40;;;21.10;86.50;;;;;;5033982;28;20940;-74
2023/05/05 12:00:16;;;;;;;8.37;7.57;;;21.00;86.10;;;;;;5033352;28;20469;-72
2023/05/05 12:02:43;;;;;;;11.40;8.20;;;20.80;86.70;;;;;;5034262;28;20450;-75
2023/05/05 12:05:18;;;;;;;12.40;7.10;;;20.60;87.40;;;;;;5033542;28;20833;-72
2023/05/05 12:07:45;;;;;;;13.73;8.57;;;20.20;88.10;;;;;;5034316;28;20487;-74
2023/05/05 12:10:13;;;;;;;11.67;7.23;;;20.10;89.00;;;;;;5033169;28;20503;-74
2023/05/05 12:12:41;;;;;;;10.10;6.10;;;19.90;89.60;;;;;;5033976;28;20994;-73
2023/05/05 12:15:08;;;;;;;10.53;8.03;;;20.20;89.30;;;;;;5033355;28;20876;-74
2023/05/05 12:17:41;;;;;;;9.10;7.00;;;20.30;89.10;;;;;;5033918;28;20806;-74
2023/05/05 12:20:09;;;;;;;11.37;8.03;;;20.40;88.80;;;;;;5038091;28;20517;-75
2023/05/05 12:22:38;;;;;;;14.77;8.80;;;20.60;88.90;;;;;;5037362;28;20463;-75
2023/05/05 12:25:06;;;;;;;9.53;6.90;;;20.80;89.00;;;;;;5032518;28;20467;-74
2023/05/05 12:27:34;;;;;;;10.73;9.00;;;21.00;87.50;;;;;;5030209;28;20472;-75
2023/05/05 12:30:15;;;;;;;11.70;8.27;;;21.00;86.60;;;;;;5031925;28;20964;-73
2023/05/05 12:32:43;;;;;;;13.57;8.30;;;21.10;87.00;;;;;;5035706;28;20863;-74
2023/05/05 12:35:10;;;;;;;8.23;7.37;;;21.20;87.90;;;;;;5039541;28;20486;-75
2023/05/05 12:37:39;;;;;;;11.07;7.70;;;21.30;86.50;;;;;;5033007;28;20443;-73
2023/05/05 12:40:07;;;;;;;19.73;8.97;;;21.30;86.60;;;;;;5032407;28;21015;-74
2023/05/05 12:42:39;;;;;;;13.60;7.07;;;21.30;86.70;;;;;;5033708;28;20824;-74
2023/05/05 12:45:16;;;;;;;8.70;7.73;;;21.10;86.80;;;;;;5033136;28;20434;-74
2023/05/05 12:47:43;;;;;;;9.00;8.10;;;21.10;86.70;;;;;;5035550;28;20523;-74
2023/05/05 12:50:10;;;;;;;8.20;7.27;;;21.00;86.90;;;;;;5036866;28;20469;-74
2023/05/05 12:52:43;;;;;;;10.23;7.90;;;21.00;87.40;;;;;;5035837;28;20523;-74
2023/05/05 12:55:11;;;;;;;12.13;9.10;;;21.00;87.60;;;;;;5036172;28;20536;-73